sensor_id;sensor_type;location;lat;lon;timestamp;temperature;humidity
480;DHT22;226;48.606;9.096;2023-08-30T00:00:01;14.20;81.00
480;DHT22;226;48.606;9.096;2023-08-30T00:02:30;14.20;82.30
480;DHT22;226;48.606;9.096;2023-08-30T00:04:58;14.20;82.50
480;DHT22;226;48.606;9.096;2023-08-30T00:07:28;14.20;82.50
480;DHT22;226;48.606;9.096;2023-08-30T00:09:58;14.20;82.10
480;DHT22;226;48.606;9.096;2023-08-30T00:12:26;14.20;82.50
480;DHT22;226;48.606;9.096;2023-08-30T00:14:54;14.20;82.10
480;DHT22;226;48.606;9.096;2023-08-30T00:17:22;14.30;81.20
480;DHT22;226;48.606;9.096;2023-08-30T00:19:50;14.20;81.10
480;DHT22;226;48.606;9.096;2023-08-30T00:22:21;14.20;80.60
480;DHT22;226;48.606;9.096;2023-08-30T00:24:52;14.20;81.10
480;DHT22;226;48.606;9.096;2023-08-30T00:27:20;14.20;81.30
480;DHT22;226;48.606;9.096;2023-08-30T00:29:48;14.10;81.10
480;DHT22;226;48.606;9.096;2023-08-30T00:32:16;14.10;82.00
480;DHT22;226;48.606;9.096;2023-08-30T00:34:44;14.20;82.50
480;DHT22;226;48.606;9.096;2023-08-30T00:37:12;14.20;82.30
480;DHT22;226;48.606;9.096;2023-08-30T00:39:40;14.20;81.10
480;DHT22;226;48.606;9.096;2023-08-30T00:42:10;14.20;80.80
480;DHT22;226;48.606;9.096;2023-08-30T00:44:38;14.20;79.80
480;DHT22;226;48.606;9.096;2023-08-30T00:47:07;14.10;80.70
480;DHT22;226;48.606;9.096;2023-08-30T00:49:35;14.20;80.40
480;DHT22;226;48.606;9.096;2023-08-30T00:52:07;14.10;79.40
480;DHT22;226;48.606;9.096;2023-08-30T00:54:36;14.00;80.50
480;DHT22;226;48.606;9.096;2023-08-30T00:57:05;14.10;80.10
480;DHT22;226;48.606;9.096;2023-08-30T00:59:35;14.10;80.70
480;DHT22;226;48.606;9.096;2023-08-30T01:02:04;14.00;81.40
480;DHT22;226;48.606;9.096;2023-08-30T01:04:32;14.00;82.30
480;DHT22;226;48.606;9.096;2023-08-30T01:07:00;14.00;82.50
480;DHT22;226;48.606;9.096;2023-08-30T01:09:28;14.00;81.40
480;DHT22;226;48.606;9.096;2023-08-30T01:12:02;13.90;82.20
480;DHT22;226;48.606;9.096;2023-08-30T01:14:38;13.90;82.20
480;DHT22;226;48.606;9.096;2023-08-30T01:17:09;13.90;82.20
480;DHT22;226;48.606;9.096;2023-08-30T01:19:54;14.00;80.70
480;DHT22;226;48.606;9.096;2023-08-30T01:22:32;13.90;79.90
480;DHT22;226;48.606;9.096;2023-08-30T01:25:16;13.90;80.20
480;DHT22;226;48.606;9.096;2023-08-30T01:27:48;13.90;80.30
480;DHT22;226;48.606;9.096;2023-08-30T01:30:18;13.80;82.10
480;DHT22;226;48.606;9.096;2023-08-30T01:32:48;13.80;82.70
480;DHT22;226;48.606;9.096;2023-08-30T01:35:17;13.90;82.50
480;DHT22;226;48.606;9.096;2023-08-30T01:37:46;13.80;82.10
480;DHT22;226;48.606;9.096;2023-08-30T01:40:16;13.80;83.30
480;DHT22;226;48.606;9.096;2023-08-30T01:42:47;13.80;82.80
480;DHT22;226;48.606;9.096;2023-08-30T01:45:17;13.80;83.20
480;DHT22;226;48.606;9.096;2023-08-30T01:47:46;13.80;81.40
480;DHT22;226;48.606;9.096;2023-08-30T01:50:16;13.80;80.00
480;DHT22;226;48.606;9.096;2023-08-30T01:52:45;13.80;80.70
480;DHT22;226;48.606;9.096;2023-08-30T01:55:14;13.70;80.10
480;DHT22;226;48.606;9.096;2023-08-30T01:57:42;13.70;80.80
480;DHT22;226;48.606;9.096;2023-08-30T02:00:13;13.70;81.30
480;DHT22;226;48.606;9.096;2023-08-30T02:02:41;13.60;81.90
480;DHT22;226;48.606;9.096;2023-08-30T02:05:09;13.70;82.80
480;DHT22;226;48.606;9.096;2023-08-30T02:07:46;13.70;82.00
480;DHT22;226;48.606;9.096;2023-08-30T02:10:22;13.60;80.80
480;DHT22;226;48.606;9.096;2023-08-30T02:12:53;13.60;80.80
480;DHT22;226;48.606;9.096;2023-08-30T02:15:24;13.60;82.10
480;DHT22;226;48.606;9.096;2023-08-30T02:17:53;13.60;82.00
480;DHT22;226;48.606;9.096;2023-08-30T02:20:22;13.70;82.10
480;DHT22;226;48.606;9.096;2023-08-30T02:22:50;13.70;82.00
480;DHT22;226;48.606;9.096;2023-08-30T02:25:18;13.70;82.30
480;DHT22;226;48.606;9.096;2023-08-30T02:27:50;13.70;81.70
480;DHT22;226;48.606;9.096;2023-08-30T02:30:19;13.70;81.70
480;DHT22;226;48.606;9.096;2023-08-30T02:32:48;13.70;82.30
480;DHT22;226;48.606;9.096;2023-08-30T02:35:16;13.80;81.00
480;DHT22;226;48.606;9.096;2023-08-30T02:37:45;13.70;80.60
480;DHT22;226;48.606;9.096;2023-08-30T02:40:13;13.60;80.50
480;DHT22;226;48.606;9.096;2023-08-30T02:42:41;13.40;82.40
480;DHT22;226;48.606;9.096;2023-08-30T02:45:09;13.60;81.90
480;DHT22;226;48.606;9.096;2023-08-30T02:47:37;13.60;81.90
480;DHT22;226;48.606;9.096;2023-08-30T02:50:07;13.70;80.60
480;DHT22;226;48.606;9.096;2023-08-30T02:52:35;13.70;77.90
480;DHT22;226;48.606;9.096;2023-08-30T02:55:04;13.60;77.40
480;DHT22;226;48.606;9.096;2023-08-30T02:57:32;13.60;77.50
480;DHT22;226;48.606;9.096;2023-08-30T03:00:00;13.60;78.50
480;DHT22;226;48.606;9.096;2023-08-30T03:02:32;13.60;79.20
480;DHT22;226;48.606;9.096;2023-08-30T03:05:01;13.60;78.20
480;DHT22;226;48.606;9.096;2023-08-30T03:07:32;13.60;77.20
480;DHT22;226;48.606;9.096;2023-08-30T03:10:00;13.50;78.10
480;DHT22;226;48.606;9.096;2023-08-30T03:12:30;13.50;79.60
480;DHT22;226;48.606;9.096;2023-08-30T03:14:58;13.50;78.70
480;DHT22;226;48.606;9.096;2023-08-30T03:17:26;13.50;78.00
480;DHT22;226;48.606;9.096;2023-08-30T03:19:57;13.50;77.40
480;DHT22;226;48.606;9.096;2023-08-30T03:22:25;13.50;77.70
480;DHT22;226;48.606;9.096;2023-08-30T03:24:55;13.40;78.00
480;DHT22;226;48.606;9.096;2023-08-30T03:27:23;13.40;78.60
480;DHT22;226;48.606;9.096;2023-08-30T03:29:51;13.40;79.80
480;DHT22;226;48.606;9.096;2023-08-30T03:32:20;13.40;78.90
480;DHT22;226;48.606;9.096;2023-08-30T03:34:48;13.40;78.60
480;DHT22;226;48.606;9.096;2023-08-30T03:37:17;13.30;78.80
480;DHT22;226;48.606;9.096;2023-08-30T03:39:45;13.30;78.90
480;DHT22;226;48.606;9.096;2023-08-30T03:42:14;13.20;78.80
480;DHT22;226;48.606;9.096;2023-08-30T03:44:43;13.30;78.60
480;DHT22;226;48.606;9.096;2023-08-30T03:47:11;13.30;77.70
480;DHT22;226;48.606;9.096;2023-08-30T03:49:39;13.30;77.30
480;DHT22;226;48.606;9.096;2023-08-30T03:52:07;13.30;77.30
480;DHT22;226;48.606;9.096;2023-08-30T03:54:35;13.20;77.00
480;DHT22;226;48.606;9.096;2023-08-30T03:57:04;13.20;77.90
480;DHT22;226;48.606;9.096;2023-08-30T03:59:33;13.10;77.70
480;DHT22;226;48.606;9.096;2023-08-30T04:02:01;13.10;78.10
480;DHT22;226;48.606;9.096;2023-08-30T04:04:29;13.10;78.70
480;DHT22;226;48.606;9.096;2023-08-30T04:06:57;13.00;78.70
480;DHT22;226;48.606;9.096;2023-08-30T04:09:25;13.00;78.60
480;DHT22;226;48.606;9.096;2023-08-30T04:11:53;13.00;78.70
480;DHT22;226;48.606;9.096;2023-08-30T04:14:21;12.90;79.80
480;DHT22;226;48.606;9.096;2023-08-30T04:16:52;13.00;80.30
480;DHT22;226;48.606;9.096;2023-08-30T04:19:21;12.90;79.60
480;DHT22;226;48.606;9.096;2023-08-30T04:21:49;12.90;80.40
480;DHT22;226;48.606;9.096;2023-08-30T04:24:17;12.90;78.50
480;DHT22;226;48.606;9.096;2023-08-30T04:26:45;12.80;78.80
480;DHT22;226;48.606;9.096;2023-08-30T04:29:16;12.80;81.40
480;DHT22;226;48.606;9.096;2023-08-30T04:31:45;12.80;81.20
480;DHT22;226;48.606;9.096;2023-08-30T04:34:14;12.80;82.40
480;DHT22;226;48.606;9.096;2023-08-30T04:36:43;12.90;81.30
480;DHT22;226;48.606;9.096;2023-08-30T04:39:12;12.90;81.80
480;DHT22;226;48.606;9.096;2023-08-30T04:41:40;12.90;81.30
480;DHT22;226;48.606;9.096;2023-08-30T04:44:09;12.90;80.60
480;DHT22;226;48.606;9.096;2023-08-30T04:46:37;12.90;81.70
480;DHT22;226;48.606;9.096;2023-08-30T04:49:05;12.90;82.20
480;DHT22;226;48.606;9.096;2023-08-30T04:51:34;12.70;81.40
480;DHT22;226;48.606;9.096;2023-08-30T04:54:03;13.00;81.20
480;DHT22;226;48.606;9.096;2023-08-30T04:56:31;13.00;80.70
480;DHT22;226;48.606;9.096;2023-08-30T04:58:59;13.10;80.10
480;DHT22;226;48.606;9.096;2023-08-30T05:01:30;13.10;79.20
480;DHT22;226;48.606;9.096;2023-08-30T05:03:58;13.10;80.30
480;DHT22;226;48.606;9.096;2023-08-30T05:06:26;13.10;80.30
480;DHT22;226;48.606;9.096;2023-08-30T05:08:56;13.10;81.20
480;DHT22;226;48.606;9.096;2023-08-30T05:11:25;13.20;80.70
480;DHT22;226;48.606;9.096;2023-08-30T05:13:53;13.20;81.40
480;DHT22;226;48.606;9.096;2023-08-30T05:16:21;13.20;80.70
480;DHT22;226;48.606;9.096;2023-08-30T05:18:49;13.30;78.20
480;DHT22;226;48.606;9.096;2023-08-30T05:21:18;13.30;77.20
480;DHT22;226;48.606;9.096;2023-08-30T05:23:46;13.30;75.40
480;DHT22;226;48.606;9.096;2023-08-30T05:26:15;13.30;77.00
480;DHT22;226;48.606;9.096;2023-08-30T05:28:46;13.30;76.00
480;DHT22;226;48.606;9.096;2023-08-30T05:31:14;13.30;76.30
480;DHT22;226;48.606;9.096;2023-08-30T05:33:42;13.30;75.90
480;DHT22;226;48.606;9.096;2023-08-30T05:36:10;13.30;77.60
480;DHT22;226;48.606;9.096;2023-08-30T05:38:38;13.30;76.00
480;DHT22;226;48.606;9.096;2023-08-30T05:41:06;13.40;76.40
480;DHT22;226;48.606;9.096;2023-08-30T05:43:36;13.40;78.00
480;DHT22;226;48.606;9.096;2023-08-30T05:46:05;13.40;77.80
480;DHT22;226;48.606;9.096;2023-08-30T05:48:39;13.60;77.10
480;DHT22;226;48.606;9.096;2023-08-30T05:51:07;13.50;75.40
480;DHT22;226;48.606;9.096;2023-08-30T05:53:35;13.50;74.20
480;DHT22;226;48.606;9.096;2023-08-30T05:56:03;13.50;75.20
480;DHT22;226;48.606;9.096;2023-08-30T05:58:32;13.50;71.20
480;DHT22;226;48.606;9.096;2023-08-30T06:01:01;13.60;73.80
480;DHT22;226;48.606;9.096;2023-08-30T06:03:31;13.60;75.00
480;DHT22;226;48.606;9.096;2023-08-30T06:05:59;13.70;74.40
480;DHT22;226;48.606;9.096;2023-08-30T06:08:28;13.70;73.20
480;DHT22;226;48.606;9.096;2023-08-30T06:10:56;13.70;72.30
480;DHT22;226;48.606;9.096;2023-08-30T06:13:24;13.70;71.50
480;DHT22;226;48.606;9.096;2023-08-30T06:15:52;13.70;69.90
480;DHT22;226;48.606;9.096;2023-08-30T06:18:22;13.80;70.70
480;DHT22;226;48.606;9.096;2023-08-30T06:20:50;13.80;70.40
480;DHT22;226;48.606;9.096;2023-08-30T06:23:19;13.90;70.20
480;DHT22;226;48.606;9.096;2023-08-30T06:25:53;13.90;68.70
480;DHT22;226;48.606;9.096;2023-08-30T06:28:21;13.90;69.20
480;DHT22;226;48.606;9.096;2023-08-30T06:30:50;13.90;71.50
480;DHT22;226;48.606;9.096;2023-08-30T06:33:18;14.00;69.80
480;DHT22;226;48.606;9.096;2023-08-30T06:35:49;14.10;69.90
480;DHT22;226;48.606;9.096;2023-08-30T06:38:17;14.10;68.70
480;DHT22;226;48.606;9.096;2023-08-30T06:40:46;14.10;67.70
480;DHT22;226;48.606;9.096;2023-08-30T06:43:14;14.10;68.00
480;DHT22;226;48.606;9.096;2023-08-30T06:45:42;14.10;67.60
480;DHT22;226;48.606;9.096;2023-08-30T06:48:10;13.50;66.00
480;DHT22;226;48.606;9.096;2023-08-30T06:50:39;14.20;68.40
480;DHT22;226;48.606;9.096;2023-08-30T06:53:08;14.20;67.10
480;DHT22;226;48.606;9.096;2023-08-30T06:55:37;14.30;66.30
480;DHT22;226;48.606;9.096;2023-08-30T06:58:05;14.40;66.80
480;DHT22;226;48.606;9.096;2023-08-30T07:00:33;14.30;60.90
480;DHT22;226;48.606;9.096;2023-08-30T07:03:02;14.30;61.50
480;DHT22;226;48.606;9.096;2023-08-30T07:05:30;14.30;62.90
480;DHT22;226;48.606;9.096;2023-08-30T07:07:58;14.30;59.80
480;DHT22;226;48.606;9.096;2023-08-30T07:10:27;14.20;59.70
480;DHT22;226;48.606;9.096;2023-08-30T07:12:55;14.30;61.90
480;DHT22;226;48.606;9.096;2023-08-30T07:15:23;14.10;62.80
480;DHT22;226;48.606;9.096;2023-08-30T07:17:52;14.40;67.30
480;DHT22;226;48.606;9.096;2023-08-30T07:20:23;14.60;68.90
480;DHT22;226;48.606;9.096;2023-08-30T07:22:51;14.70;65.80
480;DHT22;226;48.606;9.096;2023-08-30T07:25:19;14.70;63.10
480;DHT22;226;48.606;9.096;2023-08-30T07:27:49;14.80;62.00
480;DHT22;226;48.606;9.096;2023-08-30T07:30:17;14.80;61.80
480;DHT22;226;48.606;9.096;2023-08-30T07:32:45;14.90;62.60
480;DHT22;226;48.606;9.096;2023-08-30T07:35:14;14.90;61.40
480;DHT22;226;48.606;9.096;2023-08-30T07:37:43;15.00;60.60
480;DHT22;226;48.606;9.096;2023-08-30T07:40:12;15.00;59.40
480;DHT22;226;48.606;9.096;2023-08-30T07:42:40;15.10;59.50
480;DHT22;226;48.606;9.096;2023-08-30T07:45:10;15.10;59.40
480;DHT22;226;48.606;9.096;2023-08-30T07:47:38;15.40;61.10
480;DHT22;226;48.606;9.096;2023-08-30T07:50:07;15.50;58.80
480;DHT22;226;48.606;9.096;2023-08-30T07:52:35;15.60;53.40
480;DHT22;226;48.606;9.096;2023-08-30T07:55:13;15.60;51.10
480;DHT22;226;48.606;9.096;2023-08-30T07:57:41;15.60;54.10
480;DHT22;226;48.606;9.096;2023-08-30T08:00:12;15.70;52.90
480;DHT22;226;48.606;9.096;2023-08-30T08:02:40;15.80;52.50
480;DHT22;226;48.606;9.096;2023-08-30T08:05:09;15.90;52.20
480;DHT22;226;48.606;9.096;2023-08-30T08:07:39;15.90;51.70
480;DHT22;226;48.606;9.096;2023-08-30T08:10:07;16.00;51.90
480;DHT22;226;48.606;9.096;2023-08-30T08:12:36;16.10;50.10
480;DHT22;226;48.606;9.096;2023-08-30T08:15:06;16.10;46.20
480;DHT22;226;48.606;9.096;2023-08-30T08:17:35;15.90;43.90
480;DHT22;226;48.606;9.096;2023-08-30T08:20:05;15.90;49.10
480;DHT22;226;48.606;9.096;2023-08-30T08:22:33;15.90;52.60
480;DHT22;226;48.606;9.096;2023-08-30T08:25:01;16.10;54.40
480;DHT22;226;48.606;9.096;2023-08-30T08:27:30;16.20;52.50
480;DHT22;226;48.606;9.096;2023-08-30T08:29:58;16.20;44.70
480;DHT22;226;48.606;9.096;2023-08-30T08:32:26;16.20;44.20
480;DHT22;226;48.606;9.096;2023-08-30T08:34:55;16.30;46.10
480;DHT22;226;48.606;9.096;2023-08-30T08:37:23;16.50;47.50
480;DHT22;226;48.606;9.096;2023-08-30T08:39:52;16.40;47.00
480;DHT22;226;48.606;9.096;2023-08-30T08:42:20;16.50;45.20
480;DHT22;226;48.606;9.096;2023-08-30T08:44:51;16.50;42.30
480;DHT22;226;48.606;9.096;2023-08-30T08:47:20;16.50;43.70
480;DHT22;226;48.606;9.096;2023-08-30T08:49:49;16.40;44.50
480;DHT22;226;48.606;9.096;2023-08-30T08:52:19;16.30;44.30
480;DHT22;226;48.606;9.096;2023-08-30T08:54:58;16.20;44.70
480;DHT22;226;48.606;9.096;2023-08-30T08:57:28;16.30;48.70
480;DHT22;226;48.606;9.096;2023-08-30T08:59:58;16.30;45.50
480;DHT22;226;48.606;9.096;2023-08-30T09:02:26;16.40;45.30
480;DHT22;226;48.606;9.096;2023-08-30T09:04:57;16.40;44.90
480;DHT22;226;48.606;9.096;2023-08-30T09:07:27;16.50;44.40
480;DHT22;226;48.606;9.096;2023-08-30T09:09:57;16.50;45.00
480;DHT22;226;48.606;9.096;2023-08-30T09:12:25;16.60;50.90
480;DHT22;226;48.606;9.096;2023-08-30T09:14:54;16.70;49.80
480;DHT22;226;48.606;9.096;2023-08-30T09:17:23;16.70;44.70
480;DHT22;226;48.606;9.096;2023-08-30T09:19:51;16.80;48.10
480;DHT22;226;48.606;9.096;2023-08-30T09:22:20;16.90;45.50
480;DHT22;226;48.606;9.096;2023-08-30T09:24:49;17.00;50.00
480;DHT22;226;48.606;9.096;2023-08-30T09:27:18;17.10;43.70
480;DHT22;226;48.606;9.096;2023-08-30T09:29:46;17.00;45.00
480;DHT22;226;48.606;9.096;2023-08-30T09:32:20;17.00;49.40
480;DHT22;226;48.606;9.096;2023-08-30T09:34:49;17.00;43.70
480;DHT22;226;48.606;9.096;2023-08-30T09:37:21;17.00;47.40
480;DHT22;226;48.606;9.096;2023-08-30T09:39:51;17.50;46.00
480;DHT22;226;48.606;9.096;2023-08-30T09:42:19;16.50;46.60
480;DHT22;226;48.606;9.096;2023-08-30T09:44:48;17.00;41.10
480;DHT22;226;48.606;9.096;2023-08-30T09:47:17;16.90;42.10
480;DHT22;226;48.606;9.096;2023-08-30T09:49:45;17.00;42.00
480;DHT22;226;48.606;9.096;2023-08-30T09:52:15;17.00;41.80
480;DHT22;226;48.606;9.096;2023-08-30T09:54:44;17.10;43.40
480;DHT22;226;48.606;9.096;2023-08-30T09:57:14;17.10;44.00
480;DHT22;226;48.606;9.096;2023-08-30T09:59:44;17.20;48.20
480;DHT22;226;48.606;9.096;2023-08-30T10:02:13;17.30;43.70
480;DHT22;226;48.606;9.096;2023-08-30T10:04:42;17.30;43.40
480;DHT22;226;48.606;9.096;2023-08-30T10:07:12;17.60;42.70
480;DHT22;226;48.606;9.096;2023-08-30T10:09:41;17.40;42.10
480;DHT22;226;48.606;9.096;2023-08-30T10:12:31;17.50;39.40
480;DHT22;226;48.606;9.096;2023-08-30T10:15:00;17.60;40.70
480;DHT22;226;48.606;9.096;2023-08-30T10:17:31;17.70;43.30
480;DHT22;226;48.606;9.096;2023-08-30T10:20:04;17.80;42.40
480;DHT22;226;48.606;9.096;2023-08-30T10:22:36;17.90;41.70
480;DHT22;226;48.606;9.096;2023-08-30T10:25:08;18.00;39.10
480;DHT22;226;48.606;9.096;2023-08-30T10:27:42;18.10;38.90
480;DHT22;226;48.606;9.096;2023-08-30T10:30:11;18.30;34.10
480;DHT22;226;48.606;9.096;2023-08-30T10:32:40;18.30;34.10
480;DHT22;226;48.606;9.096;2023-08-30T10:35:11;18.50;33.70
480;DHT22;226;48.606;9.096;2023-08-30T10:37:40;18.50;29.00
480;DHT22;226;48.606;9.096;2023-08-30T10:40:08;18.60;30.30
480;DHT22;226;48.606;9.096;2023-08-30T10:42:40;18.60;31.80
480;DHT22;226;48.606;9.096;2023-08-30T10:45:08;18.60;29.70
480;DHT22;226;48.606;9.096;2023-08-30T10:47:40;18.70;31.70
480;DHT22;226;48.606;9.096;2023-08-30T10:50:11;18.70;32.00
480;DHT22;226;48.606;9.096;2023-08-30T10:52:40;18.80;28.90
480;DHT22;226;48.606;9.096;2023-08-30T10:55:09;18.70;26.20
480;DHT22;226;48.606;9.096;2023-08-30T10:57:42;18.60;26.90
480;DHT22;226;48.606;9.096;2023-08-30T11:00:15;18.70;26.70
480;DHT22;226;48.606;9.096;2023-08-30T11:02:48;18.70;26.20
480;DHT22;226;48.606;9.096;2023-08-30T11:05:17;18.80;29.20
480;DHT22;226;48.606;9.096;2023-08-30T11:07:46;19.00;26.40
480;DHT22;226;48.606;9.096;2023-08-30T11:10:16;19.10;23.30
480;DHT22;226;48.606;9.096;2023-08-30T11:12:46;19.30;28.70
480;DHT22;226;48.606;9.096;2023-08-30T11:15:16;19.40;29.00
480;DHT22;226;48.606;9.096;2023-08-30T11:17:45;19.60;26.30
480;DHT22;226;48.606;9.096;2023-08-30T11:20:15;19.80;24.50
480;DHT22;226;48.606;9.096;2023-08-30T11:22:47;20.00;26.80
480;DHT22;226;48.606;9.096;2023-08-30T11:32:43;20.80;62.90
480;DHT22;226;48.606;9.096;2023-08-30T11:35:11;20.90;54.20
480;DHT22;226;48.606;9.096;2023-08-30T11:37:40;21.00;45.60
480;DHT22;226;48.606;9.096;2023-08-30T11:40:11;21.20;29.20
480;DHT22;226;48.606;9.096;2023-08-30T11:42:39;21.40;24.00
480;DHT22;226;48.606;9.096;2023-08-30T11:45:10;21.60;22.20
480;DHT22;226;48.606;9.096;2023-08-30T11:47:38;21.60;18.50
480;DHT22;226;48.606;9.096;2023-08-30T11:50:10;21.60;17.40
480;DHT22;226;48.606;9.096;2023-08-30T11:52:39;21.50;18.40
480;DHT22;226;48.606;9.096;2023-08-30T11:55:08;21.40;19.20
480;DHT22;226;48.606;9.096;2023-08-30T11:57:36;21.40;16.90
480;DHT22;226;48.606;9.096;2023-08-30T12:00:10;21.40;17.00
480;DHT22;226;48.606;9.096;2023-08-30T12:02:39;21.10;15.00
480;DHT22;226;48.606;9.096;2023-08-30T12:05:11;20.20;16.80
480;DHT22;226;48.606;9.096;2023-08-30T12:07:39;19.60;18.50
480;DHT22;226;48.606;9.096;2023-08-30T12:10:09;19.20;18.90
480;DHT22;226;48.606;9.096;2023-08-30T12:12:38;18.70;21.50
480;DHT22;226;48.606;9.096;2023-08-30T12:15:14;18.30;24.70
480;DHT22;226;48.606;9.096;2023-08-30T12:17:42;17.90;24.90
480;DHT22;226;48.606;9.096;2023-08-30T12:20:17;17.80;24.30
480;DHT22;226;48.606;9.096;2023-08-30T12:22:47;17.50;25.50
480;DHT22;226;48.606;9.096;2023-08-30T12:25:19;17.20;28.00
480;DHT22;226;48.606;9.096;2023-08-30T12:27:47;17.20;31.30
480;DHT22;226;48.606;9.096;2023-08-30T12:30:17;17.20;31.60
480;DHT22;226;48.606;9.096;2023-08-30T12:32:46;17.30;31.70
480;DHT22;226;48.606;9.096;2023-08-30T12:35:15;17.30;30.00
480;DHT22;226;48.606;9.096;2023-08-30T12:37:43;17.40;31.10
480;DHT22;226;48.606;9.096;2023-08-30T12:40:11;17.30;30.40
480;DHT22;226;48.606;9.096;2023-08-30T12:42:40;17.30;28.80
480;DHT22;226;48.606;9.096;2023-08-30T12:45:09;17.20;29.80
480;DHT22;226;48.606;9.096;2023-08-30T12:47:38;17.20;30.60
480;DHT22;226;48.606;9.096;2023-08-30T12:50:07;17.20;29.80
480;DHT22;226;48.606;9.096;2023-08-30T12:52:36;17.20;29.30
480;DHT22;226;48.606;9.096;2023-08-30T12:55:05;17.30;32.20
480;DHT22;226;48.606;9.096;2023-08-30T12:57:33;17.40;32.60
480;DHT22;226;48.606;9.096;2023-08-30T13:00:01;17.30;31.20
480;DHT22;226;48.606;9.096;2023-08-30T13:02:29;17.40;33.40
480;DHT22;226;48.606;9.096;2023-08-30T13:04:59;17.40;29.30
480;DHT22;226;48.606;9.096;2023-08-30T13:07:27;17.50;31.50
480;DHT22;226;48.606;9.096;2023-08-30T13:09:55;17.40;29.30
480;DHT22;226;48.606;9.096;2023-08-30T13:12:24;17.30;32.60
480;DHT22;226;48.606;9.096;2023-08-30T13:14:52;17.30;40.10
480;DHT22;226;48.606;9.096;2023-08-30T13:17:20;17.30;43.20
480;DHT22;226;48.606;9.096;2023-08-30T13:19:48;17.40;46.90
480;DHT22;226;48.606;9.096;2023-08-30T13:22:19;17.40;37.30
480;DHT22;226;48.606;9.096;2023-08-30T13:24:47;17.40;39.70
480;DHT22;226;48.606;9.096;2023-08-30T13:27:15;17.50;43.40
480;DHT22;226;48.606;9.096;2023-08-30T13:29:43;17.50;40.50
480;DHT22;226;48.606;9.096;2023-08-30T13:32:11;17.60;39.50
480;DHT22;226;48.606;9.096;2023-08-30T13:34:40;17.90;45.20
480;DHT22;226;48.606;9.096;2023-08-30T13:37:10;18.20;37.40
480;DHT22;226;48.606;9.096;2023-08-30T13:39:40;18.60;35.30
480;DHT22;226;48.606;9.096;2023-08-30T13:42:08;18.90;35.90
480;DHT22;226;48.606;9.096;2023-08-30T13:44:36;19.20;30.20
480;DHT22;226;48.606;9.096;2023-08-30T13:47:05;19.40;32.20
480;DHT22;226;48.606;9.096;2023-08-30T13:49:33;19.60;29.10
480;DHT22;226;48.606;9.096;2023-08-30T13:52:01;19.60;29.50
480;DHT22;226;48.606;9.096;2023-08-30T13:54:29;19.70;30.40
480;DHT22;226;48.606;9.096;2023-08-30T13:56:59;19.90;28.00
480;DHT22;226;48.606;9.096;2023-08-30T13:59:27;20.50;36.10
480;DHT22;226;48.606;9.096;2023-08-30T14:01:57;20.70;28.00
480;DHT22;226;48.606;9.096;2023-08-30T14:04:25;21.10;21.60
480;DHT22;226;48.606;9.096;2023-08-30T14:06:53;21.30;19.20
480;DHT22;226;48.606;9.096;2023-08-30T14:09:21;21.80;48.10
480;DHT22;226;48.606;9.096;2023-08-30T14:11:49;22.60;43.70
480;DHT22;226;48.606;9.096;2023-08-30T14:14:19;23.60;42.20
480;DHT22;226;48.606;9.096;2023-08-30T14:16:47;24.50;40.60
480;DHT22;226;48.606;9.096;2023-08-30T14:19:16;24.70;32.30
480;DHT22;226;48.606;9.096;2023-08-30T14:21:44;24.40;35.30
480;DHT22;226;48.606;9.096;2023-08-30T14:24:13;24.20;35.90
480;DHT22;226;48.606;9.096;2023-08-30T14:26:41;23.80;35.00
480;DHT22;226;48.606;9.096;2023-08-30T14:29:09;23.70;35.10
480;DHT22;226;48.606;9.096;2023-08-30T14:31:38;23.80;34.20
480;DHT22;226;48.606;9.096;2023-08-30T14:34:06;23.90;33.50
480;DHT22;226;48.606;9.096;2023-08-30T14:36:35;24.00;35.60
480;DHT22;226;48.606;9.096;2023-08-30T14:39:03;23.90;35.40
480;DHT22;226;48.606;9.096;2023-08-30T14:41:31;23.70;35.20
480;DHT22;226;48.606;9.096;2023-08-30T14:44:03;23.70;36.90
480;DHT22;226;48.606;9.096;2023-08-30T14:46:31;24.10;34.90
480;DHT22;226;48.606;9.096;2023-08-30T14:49:01;24.80;34.50
480;DHT22;226;48.606;9.096;2023-08-30T14:51:29;25.10;31.50
480;DHT22;226;48.606;9.096;2023-08-30T14:53:57;25.10;31.40
480;DHT22;226;48.606;9.096;2023-08-30T14:56:25;25.00;31.30
480;DHT22;226;48.606;9.096;2023-08-30T14:58:53;24.80;31.10
480;DHT22;226;48.606;9.096;2023-08-30T15:01:21;24.90;32.00
480;DHT22;226;48.606;9.096;2023-08-30T15:03:49;24.30;33.60
480;DHT22;226;48.606;9.096;2023-08-30T15:06:19;24.20;34.40
480;DHT22;226;48.606;9.096;2023-08-30T15:08:48;23.60;34.50
480;DHT22;226;48.606;9.096;2023-08-30T15:11:16;23.20;37.30
480;DHT22;226;48.606;9.096;2023-08-30T15:13:45;22.90;35.20
480;DHT22;226;48.606;9.096;2023-08-30T15:16:13;22.60;37.00
480;DHT22;226;48.606;9.096;2023-08-30T15:18:41;22.40;39.40
480;DHT22;226;48.606;9.096;2023-08-30T15:21:09;22.40;42.10
480;DHT22;226;48.606;9.096;2023-08-30T15:23:38;21.80;35.20
480;DHT22;226;48.606;9.096;2023-08-30T15:26:06;21.40;37.90
480;DHT22;226;48.606;9.096;2023-08-30T15:28:35;21.30;38.70
480;DHT22;226;48.606;9.096;2023-08-30T15:31:03;21.20;39.90
480;DHT22;226;48.606;9.096;2023-08-30T15:33:31;21.30;40.80
480;DHT22;226;48.606;9.096;2023-08-30T15:36:00;21.90;42.80
480;DHT22;226;48.606;9.096;2023-08-30T15:38:28;21.70;42.80
480;DHT22;226;48.606;9.096;2023-08-30T15:40:58;22.00;42.50
480;DHT22;226;48.606;9.096;2023-08-30T15:43:26;22.20;37.50
480;DHT22;226;48.606;9.096;2023-08-30T15:45:54;22.60;41.20
480;DHT22;226;48.606;9.096;2023-08-30T15:48:22;23.00;38.80
480;DHT22;226;48.606;9.096;2023-08-30T15:53:19;23.10;33.90
480;DHT22;226;48.606;9.096;2023-08-30T15:55:47;23.20;35.80
480;DHT22;226;48.606;9.096;2023-08-30T15:58:16;23.10;35.60
480;DHT22;226;48.606;9.096;2023-08-30T16:00:45;23.10;33.20
480;DHT22;226;48.606;9.096;2023-08-30T16:03:16;22.90;34.90
480;DHT22;226;48.606;9.096;2023-08-30T16:05:44;22.50;35.90
480;DHT22;226;48.606;9.096;2023-08-30T16:08:13;22.50;37.60
480;DHT22;226;48.606;9.096;2023-08-30T16:10:41;22.10;38.20
480;DHT22;226;48.606;9.096;2023-08-30T16:13:09;21.90;37.40
480;DHT22;226;48.606;9.096;2023-08-30T16:15:39;22.00;35.80
480;DHT22;226;48.606;9.096;2023-08-30T16:18:07;21.80;37.80
480;DHT22;226;48.606;9.096;2023-08-30T16:20:35;21.70;37.90
480;DHT22;226;48.606;9.096;2023-08-30T16:23:04;21.60;39.70
480;DHT22;226;48.606;9.096;2023-08-30T16:25:33;21.50;39.30
480;DHT22;226;48.606;9.096;2023-08-30T16:28:01;21.40;39.90
480;DHT22;226;48.606;9.096;2023-08-30T16:30:30;21.30;40.50
480;DHT22;226;48.606;9.096;2023-08-30T16:33:00;21.20;40.60
480;DHT22;226;48.606;9.096;2023-08-30T16:35:29;21.10;43.70
480;DHT22;226;48.606;9.096;2023-08-30T16:37:58;21.00;41.20
480;DHT22;226;48.606;9.096;2023-08-30T16:40:26;20.90;42.50
480;DHT22;226;48.606;9.096;2023-08-30T16:42:54;20.80;44.90
480;DHT22;226;48.606;9.096;2023-08-30T16:45:22;20.70;46.10
480;DHT22;226;48.606;9.096;2023-08-30T16:47:50;20.50;51.00
480;DHT22;226;48.606;9.096;2023-08-30T16:50:34;20.50;52.00
480;DHT22;226;48.606;9.096;2023-08-30T16:53:04;20.50;53.90
480;DHT22;226;48.606;9.096;2023-08-30T16:55:33;20.30;48.70